sensor_id;sensor_type;location;lat;lon;timestamp;P1;durP1;ratioP1;P2;durP2;ratioP2
15708;SDS011;7954;51.914;8.420;2023-02-28T00:01:37;5.43;;;3.20;;
15708;SDS011;7954;51.914;8.420;2023-02-28T00:04:07;5.87;;;3.60;;
15708;SDS011;7954;51.914;8.420;2023-02-28T00:06:36;6.63;;;3.73;;
15708;SDS011;7954;51.914;8.420;2023-02-28T00:09:04;7.33;;;4.30;;
15708;SDS011;7954;51.914;8.420;2023-02-28T00:11:31;6.30;;;4.20;;
15708;SDS011;7954;51.914;8.420;2023-02-28T00:13:59;6.03;;;3.90;;
15708;SDS011;7954;51.914;8.420;2023-02-28T00:16:27;5.80;;;4.00;;
15708;SDS011;7954;51.914;8.420;2023-02-28T00:18:55;3.47;;;3.17;;
15708;SDS011;7954;51.914;8.420;2023-02-28T00:21:24;3.90;;;3.03;;
15708;SDS011;7954;51.914;8.420;2023-02-28T00:23:53;4.90;;;3.60;;
15708;SDS011;7954;51.914;8.420;2023-02-28T00:26:21;3.90;;;3.10;;
15708;SDS011;7954;51.914;8.420;2023-02-28T00:28:49;3.17;;;2.90;;
15708;SDS011;7954;51.914;8.420;2023-02-28T00:31:19;6.40;;;3.27;;
15708;SDS011;7954;51.914;8.420;2023-02-28T00:33:47;3.50;;;3.03;;
15708;SDS011;7954;51.914;8.420;2023-02-28T00:36:14;4.73;;;2.97;;
15708;SDS011;7954;51.914;8.420;2023-02-28T00:38:44;4.27;;;2.80;;
15708;SDS011;7954;51.914;8.420;2023-02-28T00:41:12;3.00;;;2.30;;
15708;SDS011;7954;51.914;8.420;2023-02-28T00:43:40;3.57;;;2.90;;
15708;SDS011;7954;51.914;8.420;2023-02-28T00:46:08;4.87;;;3.03;;
15708;SDS011;7954;51.914;8.420;2023-02-28T00:48:37;5.03;;;3.57;;
15708;SDS011;7954;51.914;8.420;2023-02-28T00:51:05;4.27;;;3.33;;
15708;SDS011;7954;51.914;8.420;2023-02-28T00:53:33;4.83;;;3.27;;
15708;SDS011;7954;51.914;8.420;2023-02-28T00:56:03;5.70;;;3.40;;
15708;SDS011;7954;51.914;8.420;2023-02-28T00:58:31;5.10;;;3.80;;
15708;SDS011;7954;51.914;8.420;2023-02-28T01:01:00;4.63;;;3.50;;
15708;SDS011;7954;51.914;8.420;2023-02-28T01:03:28;4.73;;;3.40;;
15708;SDS011;7954;51.914;8.420;2023-02-28T01:05:56;5.13;;;3.57;;
15708;SDS011;7954;51.914;8.420;2023-02-28T01:08:24;5.40;;;3.33;;
15708;SDS011;7954;51.914;8.420;2023-02-28T01:10:53;5.63;;;3.57;;
15708;SDS011;7954;51.914;8.420;2023-02-28T01:13:23;5.47;;;3.40;;
15708;SDS011;7954;51.914;8.420;2023-02-28T01:15:54;5.20;;;3.67;;
15708;SDS011;7954;51.914;8.420;2023-02-28T01:18:23;4.23;;;3.20;;
15708;SDS011;7954;51.914;8.420;2023-02-28T01:20:51;4.87;;;3.47;;
15708;SDS011;7954;51.914;8.420;2023-02-28T01:23:19;4.50;;;3.13;;
15708;SDS011;7954;51.914;8.420;2023-02-28T01:25:49;4.13;;;3.43;;
15708;SDS011;7954;51.914;8.420;2023-02-28T01:28:19;4.33;;;3.67;;
15708;SDS011;7954;51.914;8.420;2023-02-28T01:30:49;3.53;;;2.90;;
15708;SDS011;7954;51.914;8.420;2023-02-28T01:33:18;4.50;;;3.30;;
15708;SDS011;7954;51.914;8.420;2023-02-28T01:35:46;3.03;;;2.73;;
15708;SDS011;7954;51.914;8.420;2023-02-28T01:38:14;5.00;;;3.33;;
15708;SDS011;7954;51.914;8.420;2023-02-28T01:40:48;4.07;;;2.83;;
15708;SDS011;7954;51.914;8.420;2023-02-28T01:43:19;3.90;;;2.90;;
15708;SDS011;7954;51.914;8.420;2023-02-28T01:45:50;4.23;;;3.17;;
15708;SDS011;7954;51.914;8.420;2023-02-28T01:48:19;3.53;;;2.90;;
15708;SDS011;7954;51.914;8.420;2023-02-28T01:50:50;4.50;;;3.33;;
15708;SDS011;7954;51.914;8.420;2023-02-28T01:53:19;3.10;;;2.57;;
15708;SDS011;7954;51.914;8.420;2023-02-28T01:55:51;4.67;;;2.67;;
15708;SDS011;7954;51.914;8.420;2023-02-28T01:58:21;3.33;;;2.50;;
15708;SDS011;7954;51.914;8.420;2023-02-28T02:00:50;3.77;;;2.60;;
15708;SDS011;7954;51.914;8.420;2023-02-28T02:03:19;3.13;;;2.67;;
15708;SDS011;7954;51.914;8.420;2023-02-28T02:05:48;3.80;;;2.70;;
15708;SDS011;7954;51.914;8.420;2023-02-28T02:08:17;4.00;;;2.63;;
15708;SDS011;7954;51.914;8.420;2023-02-28T02:10:48;3.43;;;2.53;;
15708;SDS011;7954;51.914;8.420;2023-02-28T02:13:23;2.73;;;2.50;;
15708;SDS011;7954;51.914;8.420;2023-02-28T02:16:04;3.23;;;2.90;;
15708;SDS011;7954;51.914;8.420;2023-02-28T02:18:40;4.00;;;2.87;;
15708;SDS011;7954;51.914;8.420;2023-02-28T02:21:22;4.10;;;2.60;;
15708;SDS011;7954;51.914;8.420;2023-02-28T02:24:28;3.43;;;2.67;;
15708;SDS011;7954;51.914;8.420;2023-02-28T02:27:23;3.50;;;2.90;;
15708;SDS011;7954;51.914;8.420;2023-02-28T02:30:14;3.17;;;2.50;;
15708;SDS011;7954;51.914;8.420;2023-02-28T02:33:04;3.03;;;2.70;;
15708;SDS011;7954;51.914;8.420;2023-02-28T02:35:45;4.43;;;2.67;;
15708;SDS011;7954;51.914;8.420;2023-02-28T02:38:21;2.60;;;2.30;;
15708;SDS011;7954;51.914;8.420;2023-02-28T02:41:02;3.00;;;2.47;;
15708;SDS011;7954;51.914;8.420;2023-02-28T02:43:36;2.87;;;2.60;;
15708;SDS011;7954;51.914;8.420;2023-02-28T02:46:08;2.80;;;2.37;;
15708;SDS011;7954;51.914;8.420;2023-02-28T02:48:40;2.83;;;2.40;;
15708;SDS011;7954;51.914;8.420;2023-02-28T02:51:13;3.20;;;2.90;;
15708;SDS011;7954;51.914;8.420;2023-02-28T02:53:44;4.53;;;2.80;;
15708;SDS011;7954;51.914;8.420;2023-02-28T02:56:17;3.23;;;2.27;;
15708;SDS011;7954;51.914;8.420;2023-02-28T02:58:47;2.40;;;2.20;;
15708;SDS011;7954;51.914;8.420;2023-02-28T03:01:17;3.80;;;2.40;;
15708;SDS011;7954;51.914;8.420;2023-02-28T03:03:55;3.50;;;2.27;;
15708;SDS011;7954;51.914;8.420;2023-02-28T03:06:27;3.03;;;2.17;;
15708;SDS011;7954;51.914;8.420;2023-02-28T03:08:55;2.80;;;2.23;;
15708;SDS011;7954;51.914;8.420;2023-02-28T03:11:23;3.10;;;2.30;;
15708;SDS011;7954;51.914;8.420;2023-02-28T03:16:49;2.57;;;2.00;;
15708;SDS011;7954;51.914;8.420;2023-02-28T03:19:33;2.33;;;2.07;;
15708;SDS011;7954;51.914;8.420;2023-02-28T03:22:14;3.03;;;2.33;;
15708;SDS011;7954;51.914;8.420;2023-02-28T03:24:49;3.93;;;2.53;;
15708;SDS011;7954;51.914;8.420;2023-02-28T03:27:23;2.90;;;2.20;;
15708;SDS011;7954;51.914;8.420;2023-02-28T03:29:57;4.77;;;2.60;;
15708;SDS011;7954;51.914;8.420;2023-02-28T03:32:32;2.53;;;2.10;;
15708;SDS011;7954;51.914;8.420;2023-02-28T03:35:06;3.07;;;2.67;;
15708;SDS011;7954;51.914;8.420;2023-02-28T03:37:40;3.73;;;3.23;;
15708;SDS011;7954;51.914;8.420;2023-02-28T03:40:12;3.13;;;2.67;;
15708;SDS011;7954;51.914;8.420;2023-02-28T03:42:44;2.80;;;2.43;;
15708;SDS011;7954;51.914;8.420;2023-02-28T03:45:15;3.67;;;2.77;;
15708;SDS011;7954;51.914;8.420;2023-02-28T03:47:46;2.97;;;2.63;;
15708;SDS011;7954;51.914;8.420;2023-02-28T03:50:20;2.97;;;2.60;;
15708;SDS011;7954;51.914;8.420;2023-02-28T03:52:55;2.90;;;2.57;;
15708;SDS011;7954;51.914;8.420;2023-02-28T03:55:32;2.40;;;2.20;;
15708;SDS011;7954;51.914;8.420;2023-02-28T03:58:05;4.73;;;3.10;;
15708;SDS011;7954;51.914;8.420;2023-02-28T04:00:40;5.80;;;3.23;;
15708;SDS011;7954;51.914;8.420;2023-02-28T04:03:13;4.80;;;3.10;;
15708;SDS011;7954;51.914;8.420;2023-02-28T04:05:46;4.93;;;2.60;;
15708;SDS011;7954;51.914;8.420;2023-02-28T04:08:19;2.27;;;2.07;;
15708;SDS011;7954;51.914;8.420;2023-02-28T04:10:49;3.03;;;1.70;;
15708;SDS011;7954;51.914;8.420;2023-02-28T04:13:22;2.30;;;2.10;;
15708;SDS011;7954;51.914;8.420;2023-02-28T04:15:50;2.30;;;2.10;;
15708;SDS011;7954;51.914;8.420;2023-02-28T04:18:22;2.83;;;2.13;;
15708;SDS011;7954;51.914;8.420;2023-02-28T04:20:50;2.27;;;2.07;;
15708;SDS011;7954;51.914;8.420;2023-02-28T04:23:19;3.03;;;2.20;;
15708;SDS011;7954;51.914;8.420;2023-02-28T04:25:47;2.30;;;2.10;;
15708;SDS011;7954;51.914;8.420;2023-02-28T04:28:15;3.73;;;2.30;;
15708;SDS011;7954;51.914;8.420;2023-02-28T04:30:44;2.60;;;2.40;;
15708;SDS011;7954;51.914;8.420;2023-02-28T04:33:11;2.83;;;2.10;;
15708;SDS011;7954;51.914;8.420;2023-02-28T04:35:39;2.93;;;2.40;;
15708;SDS011;7954;51.914;8.420;2023-02-28T04:38:07;4.60;;;2.67;;
15708;SDS011;7954;51.914;8.420;2023-02-28T04:40:37;2.40;;;2.10;;
15708;SDS011;7954;51.914;8.420;2023-02-28T04:43:05;2.53;;;2.33;;
15708;SDS011;7954;51.914;8.420;2023-02-28T04:45:32;3.70;;;2.23;;
15708;SDS011;7954;51.914;8.420;2023-02-28T04:48:02;2.93;;;2.40;;
15708;SDS011;7954;51.914;8.420;2023-02-28T04:50:30;4.47;;;2.20;;
15708;SDS011;7954;51.914;8.420;2023-02-28T04:52:58;3.37;;;2.00;;
15708;SDS011;7954;51.914;8.420;2023-02-28T04:55:26;2.00;;;1.80;;
15708;SDS011;7954;51.914;8.420;2023-02-28T04:57:55;2.30;;;2.03;;
15708;SDS011;7954;51.914;8.420;2023-02-28T05:00:23;3.97;;;2.47;;
15708;SDS011;7954;51.914;8.420;2023-02-28T05:02:51;3.03;;;2.20;;
15708;SDS011;7954;51.914;8.420;2023-02-28T05:05:19;2.60;;;2.23;;
15708;SDS011;7954;51.914;8.420;2023-02-28T05:07:47;3.60;;;2.47;;
15708;SDS011;7954;51.914;8.420;2023-02-28T05:10:15;4.30;;;2.73;;
15708;SDS011;7954;51.914;8.420;2023-02-28T05:12:43;2.83;;;2.53;;
15708;SDS011;7954;51.914;8.420;2023-02-28T05:15:14;3.00;;;2.60;;
15708;SDS011;7954;51.914;8.420;2023-02-28T05:17:44;4.60;;;2.80;;
15708;SDS011;7954;51.914;8.420;2023-02-28T05:20:12;3.27;;;2.50;;
15708;SDS011;7954;51.914;8.420;2023-02-28T05:22:42;2.73;;;2.47;;
15708;SDS011;7954;51.914;8.420;2023-02-28T05:25:11;4.67;;;2.97;;
15708;SDS011;7954;51.914;8.420;2023-02-28T05:27:42;4.73;;;2.77;;
15708;SDS011;7954;51.914;8.420;2023-02-28T05:30:10;3.43;;;3.07;;
15708;SDS011;7954;51.914;8.420;2023-02-28T05:32:40;3.60;;;3.20;;
15708;SDS011;7954;51.914;8.420;2023-02-28T05:35:10;3.90;;;3.43;;
15708;SDS011;7954;51.914;8.420;2023-02-28T05:37:39;4.17;;;3.23;;
15708;SDS011;7954;51.914;8.420;2023-02-28T05:40:07;3.93;;;3.53;;
15708;SDS011;7954;51.914;8.420;2023-02-28T05:42:37;5.33;;;3.63;;
15708;SDS011;7954;51.914;8.420;2023-02-28T05:45:06;4.63;;;3.80;;
15708;SDS011;7954;51.914;8.420;2023-02-28T05:47:35;5.57;;;4.40;;
15708;SDS011;7954;51.914;8.420;2023-02-28T05:50:05;5.93;;;4.00;;
15708;SDS011;7954;51.914;8.420;2023-02-28T05:52:35;4.13;;;3.43;;
15708;SDS011;7954;51.914;8.420;2023-02-28T05:55:03;5.23;;;3.90;;
15708;SDS011;7954;51.914;8.420;2023-02-28T05:57:32;4.23;;;3.43;;
15708;SDS011;7954;51.914;8.420;2023-02-28T06:00:01;4.30;;;3.47;;
15708;SDS011;7954;51.914;8.420;2023-02-28T06:02:30;4.20;;;3.40;;
15708;SDS011;7954;51.914;8.420;2023-02-28T06:04:58;3.50;;;3.20;;
15708;SDS011;7954;51.914;8.420;2023-02-28T06:07:28;4.40;;;3.47;;
15708;SDS011;7954;51.914;8.420;2023-02-28T06:09:56;5.43;;;3.23;;
15708;SDS011;7954;51.914;8.420;2023-02-28T06:12:25;3.83;;;3.40;;
15708;SDS011;7954;51.914;8.420;2023-02-28T06:14:53;4.03;;;3.20;;
15708;SDS011;7954;51.914;8.420;2023-02-28T06:17:21;4.45;;;3.60;;
15708;SDS011;7954;51.914;8.420;2023-02-28T06:19:49;4.73;;;3.37;;
15708;SDS011;7954;51.914;8.420;2023-02-28T06:22:16;6.70;;;4.40;;
15708;SDS011;7954;51.914;8.420;2023-02-28T06:24:46;4.70;;;3.57;;
15708;SDS011;7954;51.914;8.420;2023-02-28T06:27:15;5.23;;;4.00;;
15708;SDS011;7954;51.914;8.420;2023-02-28T06:29:43;6.57;;;4.77;;
15708;SDS011;7954;51.914;8.420;2023-02-28T06:32:10;5.77;;;4.27;;
15708;SDS011;7954;51.914;8.420;2023-02-28T06:34:39;6.73;;;4.70;;
15708;SDS011;7954;51.914;8.420;2023-02-28T06:37:06;6.90;;;5.03;;
15708;SDS011;7954;51.914;8.420;2023-02-28T06:39:34;7.13;;;5.97;;
15708;SDS011;7954;51.914;8.420;2023-02-28T06:42:05;6.60;;;5.67;;
15708;SDS011;7954;51.914;8.420;2023-02-28T06:44:33;8.25;;;7.15;;
15708;SDS011;7954;51.914;8.420;2023-02-28T06:47:02;7.50;;;6.20;;
15708;SDS011;7954;51.914;8.420;2023-02-28T06:49:32;7.17;;;5.20;;
15708;SDS011;7954;51.914;8.420;2023-02-28T06:52:01;6.60;;;5.57;;
15708;SDS011;7954;51.914;8.420;2023-02-28T06:54:29;6.03;;;5.20;;
15708;SDS011;7954;51.914;8.420;2023-02-28T06:56:57;7.00;;;5.60;;
15708;SDS011;7954;51.914;8.420;2023-02-28T06:59:27;6.37;;;5.43;;
15708;SDS011;7954;51.914;8.420;2023-02-28T07:01:56;5.60;;;4.97;;
15708;SDS011;7954;51.914;8.420;2023-02-28T07:04:24;7.47;;;4.63;;
15708;SDS011;7954;51.914;8.420;2023-02-28T07:06:51;5.73;;;4.13;;
15708;SDS011;7954;51.914;8.420;2023-02-28T07:09:22;5.03;;;4.00;;
15708;SDS011;7954;51.914;8.420;2023-02-28T07:11:50;4.40;;;4.00;;
15708;SDS011;7954;51.914;8.420;2023-02-28T07:14:18;5.10;;;4.60;;
15708;SDS011;7954;51.914;8.420;2023-02-28T07:16:49;16.53;;;10.40;;
15708;SDS011;7954;51.914;8.420;2023-02-28T07:19:17;14.33;;;9.23;;
15708;SDS011;7954;51.914;8.420;2023-02-28T07:21:45;7.87;;;6.60;;
15708;SDS011;7954;51.914;8.420;2023-02-28T07:24:15;5.43;;;4.47;;
15708;SDS011;7954;51.914;8.420;2023-02-28T07:26:44;3.67;;;3.30;;
15708;SDS011;7954;51.914;8.420;2023-02-28T07:29:12;5.47;;;3.30;;
15708;SDS011;7954;51.914;8.420;2023-02-28T07:31:40;3.90;;;3.20;;
15708;SDS011;7954;51.914;8.420;2023-02-28T07:34:10;3.43;;;2.60;;
15708;SDS011;7954;51.914;8.420;2023-02-28T07:36:38;2.80;;;2.47;;
15708;SDS011;7954;51.914;8.420;2023-02-28T07:39:05;3.80;;;2.70;;
15708;SDS011;7954;51.914;8.420;2023-02-28T07:41:35;3.40;;;2.40;;
15708;SDS011;7954;51.914;8.420;2023-02-28T07:44:09;2.40;;;2.20;;
15708;SDS011;7954;51.914;8.420;2023-02-28T07:46:37;3.23;;;2.43;;
15708;SDS011;7954;51.914;8.420;2023-02-28T07:49:06;2.87;;;2.43;;
15708;SDS011;7954;51.914;8.420;2023-02-28T07:51:37;3.83;;;2.50;;
15708;SDS011;7954;51.914;8.420;2023-02-28T07:54:05;2.63;;;2.43;;
15708;SDS011;7954;51.914;8.420;2023-02-28T07:56:33;2.60;;;2.40;;
15708;SDS011;7954;51.914;8.420;2023-02-28T07:59:00;2.87;;;2.37;;
15708;SDS011;7954;51.914;8.420;2023-02-28T08:01:30;2.30;;;2.10;;
15708;SDS011;7954;51.914;8.420;2023-02-28T08:03:58;3.13;;;2.63;;
15708;SDS011;7954;51.914;8.420;2023-02-28T08:06:26;2.43;;;2.23;;
15708;SDS011;7954;51.914;8.420;2023-02-28T08:08:56;2.77;;;2.33;;
15708;SDS011;7954;51.914;8.420;2023-02-28T08:11:24;3.07;;;2.50;;
15708;SDS011;7954;51.914;8.420;2023-02-28T08:13:54;6.27;;;2.63;;
15708;SDS011;7954;51.914;8.420;2023-02-28T08:16:22;4.37;;;2.97;;
15708;SDS011;7954;51.914;8.420;2023-02-28T08:18:49;3.63;;;3.03;;
15708;SDS011;7954;51.914;8.420;2023-02-28T08:21:19;5.73;;;3.60;;
15708;SDS011;7954;51.914;8.420;2023-02-28T08:23:49;5.20;;;4.00;;
15708;SDS011;7954;51.914;8.420;2023-02-28T08:26:20;9.23;;;6.20;;
15708;SDS011;7954;51.914;8.420;2023-02-28T08:28:48;8.93;;;4.47;;
15708;SDS011;7954;51.914;8.420;2023-02-28T08:31:16;6.17;;;4.50;;
15708;SDS011;7954;51.914;8.420;2023-02-28T08:33:45;6.10;;;3.40;;
15708;SDS011;7954;51.914;8.420;2023-02-28T08:36:15;4.33;;;3.13;;
15708;SDS011;7954;51.914;8.420;2023-02-28T08:38:43;4.60;;;3.50;;
15708;SDS011;7954;51.914;8.420;2023-02-28T08:41:12;5.67;;;4.33;;
15708;SDS011;7954;51.914;8.420;2023-02-28T08:43:42;7.37;;;4.77;;
15708;SDS011;7954;51.914;8.420;2023-02-28T08:46:11;9.00;;;6.70;;
15708;SDS011;7954;51.914;8.420;2023-02-28T08:48:41;3.63;;;2.77;;
15708;SDS011;7954;51.914;8.420;2023-02-28T08:51:09;2.33;;;1.93;;
15708;SDS011;7954;51.914;8.420;2023-02-28T08:53:39;3.23;;;2.40;;
15708;SDS011;7954;51.914;8.420;2023-02-28T08:56:09;4.17;;;2.60;;
15708;SDS011;7954;51.914;8.420;2023-02-28T08:58:37;3.10;;;2.20;;
15708;SDS011;7954;51.914;8.420;2023-02-28T09:01:11;4.50;;;3.33;;
15708;SDS011;7954;51.914;8.420;2023-02-28T09:03:42;2.77;;;2.40;;
15708;SDS011;7954;51.914;8.420;2023-02-28T09:06:10;4.07;;;3.40;;
15708;SDS011;7954;51.914;8.420;2023-02-28T09:08:38;1.90;;;1.70;;
15708;SDS011;7954;51.914;8.420;2023-02-28T09:11:07;6.40;;;4.00;;
15708;SDS011;7954;51.914;8.420;2023-02-28T09:13:35;3.77;;;3.20;;
15708;SDS011;7954;51.914;8.420;2023-02-28T09:16:05;3.40;;;2.57;;
15708;SDS011;7954;51.914;8.420;2023-02-28T09:18:37;6.63;;;3.73;;
15708;SDS011;7954;51.914;8.420;2023-02-28T09:21:05;3.63;;;2.83;;
15708;SDS011;7954;51.914;8.420;2023-02-28T09:23:34;3.13;;;2.70;;
15708;SDS011;7954;51.914;8.420;2023-02-28T09:26:04;2.67;;;1.93;;
15708;SDS011;7954;51.914;8.420;2023-02-28T09:28:33;2.03;;;1.60;;
15708;SDS011;7954;51.914;8.420;2023-02-28T09:31:01;1.87;;;1.53;;
15708;SDS011;7954;51.914;8.420;2023-02-28T09:33:31;2.47;;;2.20;;
15708;SDS011;7954;51.914;8.420;2023-02-28T09:36:02;2.70;;;2.20;;
15708;SDS011;7954;51.914;8.420;2023-02-28T09:38:30;2.73;;;1.80;;
15708;SDS011;7954;51.914;8.420;2023-02-28T09:40:59;2.67;;;1.90;;
15708;SDS011;7954;51.914;8.420;2023-02-28T09:43:30;2.73;;;1.70;;
15708;SDS011;7954;51.914;8.420;2023-02-28T09:46:05;1.60;;;1.50;;
15708;SDS011;7954;51.914;8.420;2023-02-28T09:48:44;1.90;;;1.60;;
15708;SDS011;7954;51.914;8.420;2023-02-28T09:51:22;3.97;;;1.97;;
15708;SDS011;7954;51.914;8.420;2023-02-28T09:53:59;2.87;;;1.70;;
15708;SDS011;7954;51.914;8.420;2023-02-28T09:56:29;2.00;;;1.50;;
15708;SDS011;7954;51.914;8.420;2023-02-28T09:59:01;1.33;;;1.10;;
15708;SDS011;7954;51.914;8.420;2023-02-28T10:01:34;1.53;;;1.40;;
15708;SDS011;7954;51.914;8.420;2023-02-28T10:04:21;1.43;;;1.33;;
15708;SDS011;7954;51.914;8.420;2023-02-28T10:07:06;2.37;;;1.30;;
15708;SDS011;7954;51.914;8.420;2023-02-28T10:09:46;2.23;;;1.70;;
15708;SDS011;7954;51.914;8.420;2023-02-28T10:12:19;2.87;;;1.80;;
15708;SDS011;7954;51.914;8.420;2023-02-28T10:14:48;3.83;;;1.83;;
15708;SDS011;7954;51.914;8.420;2023-02-28T10:17:21;2.30;;;1.53;;
15708;SDS011;7954;51.914;8.420;2023-02-28T10:19:55;1.87;;;1.60;;
15708;SDS011;7954;51.914;8.420;2023-02-28T10:22:29;1.40;;;1.30;;
15708;SDS011;7954;51.914;8.420;2023-02-28T10:25:05;1.50;;;1.40;;
15708;SDS011;7954;51.914;8.420;2023-02-28T10:27:45;2.07;;;1.80;;
15708;SDS011;7954;51.914;8.420;2023-02-28T10:30:13;2.03;;;1.57;;
15708;SDS011;7954;51.914;8.420;2023-02-28T10:32:43;2.10;;;1.80;;
15708;SDS011;7954;51.914;8.420;2023-02-28T10:35:15;2.83;;;1.73;;
15708;SDS011;7954;51.914;8.420;2023-02-28T10:37:46;1.70;;;1.50;;
15708;SDS011;7954;51.914;8.420;2023-02-28T10:40:28;2.57;;;1.50;;
15708;SDS011;7954;51.914;8.420;2023-02-28T10:43:00;1.70;;;1.60;;
15708;SDS011;7954;51.914;8.420;2023-02-28T10:45:29;1.63;;;1.40;;
15708;SDS011;7954;51.914;8.420;2023-02-28T10:47:59;1.67;;;1.47;;
15708;SDS011;7954;51.914;8.420;2023-02-28T10:50:30;1.73;;;1.40;;
15708;SDS011;7954;51.914;8.420;2023-02-28T10:53:07;1.47;;;1.37;;
15708;SDS011;7954;51.914;8.420;2023-02-28T10:55:43;1.40;;;1.27;;
15708;SDS011;7954;51.914;8.420;2023-02-28T10:58:20;1.50;;;1.20;;
15708;SDS011;7954;51.914;8.420;2023-02-28T11:00:49;1.73;;;1.40;;
15708;SDS011;7954;51.914;8.420;2023-02-28T11:03:28;2.57;;;1.60;;
15708;SDS011;7954;51.914;8.420;2023-02-28T11:05:58;2.80;;;1.60;;
15708;SDS011;7954;51.914;8.420;2023-02-28T11:08:34;1.60;;;1.50;;
15708;SDS011;7954;51.914;8.420;2023-02-28T11:11:10;2.17;;;1.90;;
15708;SDS011;7954;51.914;8.420;2023-02-28T11:13:39;2.90;;;1.70;;
15708;SDS011;7954;51.914;8.420;2023-02-28T11:16:09;3.23;;;1.70;;
15708;SDS011;7954;51.914;8.420;2023-02-28T11:18:41;2.43;;;1.43;;
15708;SDS011;7954;51.914;8.420;2023-02-28T11:21:15;2.07;;;1.50;;
15708;SDS011;7954;51.914;8.420;2023-02-28T11:23:48;1.83;;;1.43;;
15708;SDS011;7954;51.914;8.420;2023-02-28T11:26:35;1.50;;;1.40;;
15708;SDS011;7954;51.914;8.420;2023-02-28T11:29:09;1.87;;;1.67;;
15708;SDS011;7954;51.914;8.420;2023-02-28T11:31:40;1.73;;;1.47;;
15708;SDS011;7954;51.914;8.420;2023-02-28T11:34:23;2.27;;;1.50;;
15708;SDS011;7954;51.914;8.420;2023-02-28T11:36:54;1.40;;;1.30;;
15708;SDS011;7954;51.914;8.420;2023-02-28T11:39:25;1.70;;;1.50;;
15708;SDS011;7954;51.914;8.420;2023-02-28T11:42:00;1.40;;;1.30;;
15708;SDS011;7954;51.914;8.420;2023-02-28T11:44:40;3.60;;;1.40;;
15708;SDS011;7954;51.914;8.420;2023-02-28T11:47:24;1.80;;;1.50;;
15708;SDS011;7954;51.914;8.420;2023-02-28T11:50:04;1.67;;;1.43;;
15708;SDS011;7954;51.914;8.420;2023-02-28T11:52:48;1.70;;;1.50;;
15708;SDS011;7954;51.914;8.420;2023-02-28T11:55:23;1.93;;;1.43;;
15708;SDS011;7954;51.914;8.420;2023-02-28T12:00:49;3.87;;;1.50;;
15708;SDS011;7954;51.914;8.420;2023-02-28T12:03:34;1.60;;;1.40;;
15708;SDS011;7954;51.914;8.420;2023-02-28T12:06:16;1.53;;;1.30;;
15708;SDS011;7954;51.914;8.420;2023-02-28T12:08:53;1.67;;;1.57;;
15708;SDS011;7954;51.914;8.420;2023-02-28T12:11:34;2.17;;;1.97;;
15708;SDS011;7954;51.914;8.420;2023-02-28T12:14:17;2.87;;;1.43;;
15708;SDS011;7954;51.914;8.420;2023-02-28T12:16:59;3.43;;;1.63;;
15708;SDS011;7954;51.914;8.420;2023-02-28T12:19:38;1.80;;;1.53;;
15708;SDS011;7954;51.914;8.420;2023-02-28T12:22:19;2.93;;;2.50;;
15708;SDS011;7954;51.914;8.420;2023-02-28T12:28:01;2.23;;;1.70;;
15708;SDS011;7954;51.914;8.420;2023-02-28T12:30:31;2.50;;;1.70;;
15708;SDS011;7954;51.914;8.420;2023-02-28T12:33:03;2.07;;;1.87;;
15708;SDS011;7954;51.914;8.420;2023-02-28T12:35:35;3.03;;;1.83;;
15708;SDS011;7954;51.914;8.420;2023-02-28T12:38:06;2.03;;;1.60;;
15708;SDS011;7954;51.914;8.420;2023-02-28T12:40:42;1.87;;;1.67;;
15708;SDS011;7954;51.914;8.420;2023-02-28T12:43:14;2.10;;;1.70;;
15708;SDS011;7954;51.914;8.420;2023-02-28T12:45:45;2.10;;;1.70;;
15708;SDS011;7954;51.914;8.420;2023-02-28T12:48:18;1.97;;;1.57;;
15708;SDS011;7954;51.914;8.420;2023-02-28T12:50:51;2.10;;;1.67;;
15708;SDS011;7954;51.914;8.420;2023-02-28T12:53:22;1.83;;;1.50;;
15708;SDS011;7954;51.914;8.420;2023-02-28T12:55:57;2.20;;;1.77;;
15708;SDS011;7954;51.914;8.420;2023-02-28T12:58:37;3.50;;;1.70;;
15708;SDS011;7954;51.914;8.420;2023-02-28T13:01:21;1.87;;;1.50;;
15708;SDS011;7954;51.914;8.420;2023-02-28T13:04:34;1.63;;;1.53;;
15708;SDS011;7954;51.914;8.420;2023-02-28T13:07:49;1.30;;;1.20;;
15708;SDS011;7954;51.914;8.420;2023-02-28T13:10:40;3.57;;;2.27;;
15708;SDS011;7954;51.914;8.420;2023-02-28T13:13:14;1.87;;;1.70;;
15708;SDS011;7954;51.914;8.420;2023-02-28T13:15:59;1.60;;;1.50;;
15708;SDS011;7954;51.914;8.420;2023-02-28T13:18:30;2.37;;;1.80;;
15708;SDS011;7954;51.914;8.420;2023-02-28T13:21:02;2.30;;;1.67;;
15708;SDS011;7954;51.914;8.420;2023-02-28T13:23:39;1.40;;;1.30;;
15708;SDS011;7954;51.914;8.420;2023-02-28T13:29:30;3.80;;;2.20;;
15708;SDS011;7954;51.914;8.420;2023-02-28T13:38:15;1.40;;;1.30;;
15708;SDS011;7954;51.914;8.420;2023-02-28T13:44:00;1.90;;;1.70;;
15708;SDS011;7954;51.914;8.420;2023-02-28T13:46:30;2.30;;;1.70;;
15708;SDS011;7954;51.914;8.420;2023-02-28T13:51:53;1.70;;;1.60;;
15708;SDS011;7954;51.914;8.420;2023-02-28T13:54:34;2.50;;;2.07;;
15708;SDS011;7954;51.914;8.420;2023-02-28T13:57:17;2.63;;;2.20;;
15708;SDS011;7954;51.914;8.420;2023-02-28T14:00:04;2.83;;;2.00;;
15708;SDS011;7954;51.914;8.420;2023-02-28T14:02:50;1.80;;;1.70;;
15708;SDS011;7954;51.914;8.420;2023-02-28T14:05:30;2.00;;;1.80;;
15708;SDS011;7954;51.914;8.420;2023-02-28T14:08:04;3.47;;;3.00;;
15708;SDS011;7954;51.914;8.420;2023-02-28T14:10:35;3.23;;;2.93;;
15708;SDS011;7954;51.914;8.420;2023-02-28T14:13:13;3.50;;;2.40;;
15708;SDS011;7954;51.914;8.420;2023-02-28T14:15:57;3.00;;;2.40;;
15708;SDS011;7954;51.914;8.420;2023-02-28T14:18:28;3.33;;;2.70;;
15708;SDS011;7954;51.914;8.420;2023-02-28T14:21:09;3.33;;;2.60;;
15708;SDS011;7954;51.914;8.420;2023-02-28T14:23:43;2.63;;;2.30;;
15708;SDS011;7954;51.914;8.420;2023-02-28T14:26:29;2.33;;;2.13;;
15708;SDS011;7954;51.914;8.420;2023-02-28T14:29:16;4.33;;;3.93;;
15708;SDS011;7954;51.914;8.420;2023-02-28T14:31:58;3.50;;;1.90;;
15708;SDS011;7954;51.914;8.420;2023-02-28T14:34:32;2.13;;;1.93;;
15708;SDS011;7954;51.914;8.420;2023-02-28T14:37:09;2.20;;;2.00;;
15708;SDS011;7954;51.914;8.420;2023-02-28T14:39:43;2.40;;;2.20;;
15708;SDS011;7954;51.914;8.420;2023-02-28T14:42:30;2.30;;;2.10;;
15708;SDS011;7954;51.914;8.420;2023-02-28T14:45:00;2.27;;;2.03;;
15708;SDS011;7954;51.914;8.420;2023-02-28T14:47:30;2.40;;;1.97;;
15708;SDS011;7954;51.914;8.420;2023-02-28T14:50:00;2.60;;;2.40;;
15708;SDS011;7954;51.914;8.420;2023-02-28T14:52:33;2.60;;;2.40;;
15708;SDS011;7954;51.914;8.420;2023-02-28T14:55:01;2.83;;;2.47;;
15708;SDS011;7954;51.914;8.420;2023-02-28T14:57:35;3.60;;;3.30;;
15708;SDS011;7954;51.914;8.420;2023-02-28T15:00:11;3.07;;;2.10;;
15708;SDS011;7954;51.914;8.420;2023-02-28T15:02:43;2.23;;;1.93;;
15708;SDS011;7954;51.914;8.420;2023-02-28T15:05:18;2.03;;;1.80;;
15708;SDS011;7954;51.914;8.420;2023-02-28T15:08:01;1.80;;;1.70;;
15708;SDS011;7954;51.914;8.420;2023-02-28T15:10:31;2.77;;;2.10;;
15708;SDS011;7954;51.914;8.420;2023-02-28T15:13:02;2.90;;;2.70;;
15708;SDS011;7954;51.914;8.420;2023-02-28T15:15:35;2.20;;;2.00;;
15708;SDS011;7954;51.914;8.420;2023-02-28T15:18:30;2.20;;;1.77;;
15708;SDS011;7954;51.914;8.420;2023-02-28T15:21:04;2.20;;;2.00;;
15708;SDS011;7954;51.914;8.420;2023-02-28T15:23:35;1.87;;;1.77;;
15708;SDS011;7954;51.914;8.420;2023-02-28T15:26:04;2.17;;;1.97;;
15708;SDS011;7954;51.914;8.420;2023-02-28T15:28:32;2.10;;;1.90;;
15708;SDS011;7954;51.914;8.420;2023-02-28T15:31:01;1.87;;;1.77;;
15708;SDS011;7954;51.914;8.420;2023-02-28T15:33:31;2.07;;;1.87;;
15708;SDS011;7954;51.914;8.420;2023-02-28T15:36:11;3.70;;;2.00;;
15708;SDS011;7954;51.914;8.420;2023-02-28T15:38:45;2.40;;;2.00;;
15708;SDS011;7954;51.914;8.420;2023-02-28T15:41:23;3.10;;;2.03;;
15708;SDS011;7954;51.914;8.420;2023-02-28T15:46:59;2.10;;;2.00;;
15708;SDS011;7954;51.914;8.420;2023-02-28T15:49:31;2.70;;;2.47;;
15708;SDS011;7954;51.914;8.420;2023-02-28T15:52:11;2.30;;;2.10;;
15708;SDS011;7954;51.914;8.420;2023-02-28T15:54:45;2.27;;;2.00;;
15708;SDS011;7954;51.914;8.420;2023-02-28T15:57:15;3.70;;;2.50;;
15708;SDS011;7954;51.914;8.420;2023-02-28T15:59:49;2.73;;;2.40;;